Time;durP1;ratioP1;P1;durP2;ratioP2;P2;SDS_P1;SDS_P2;PMS_P1;PMS_P2;Temp;Humidity;BMP_temperature;BMP_pressure;BME280_temperature;BME280_humidity;BME280_pressure;Samples;Min_cycle;Max_cycle;Signal;HPM_P1;HPM_P2
2022/07/15 00:00:18;;;;;;;4.47;1.70;;;;;;;15.43;62.46;102156.22;5065000;28;20017;-73
2022/07/15 00:02:44;;;;;;;5.85;1.95;;;;;;;15.40;62.46;102153.66;5065530;28;20031;-73
2022/07/15 00:05:09;;;;;;;7.00;2.10;;;;;;;15.36;62.63;102150.25;5063719;28;20356;-73
2022/07/15 00:07:36;;;;;;;5.05;2.10;;;;;;;15.32;62.86;102146.88;5067091;28;20040;-73
2022/07/15 00:10:18;;;;;;;8.05;2.33;;;;;;;15.26;62.95;102152.25;5060561;28;20035;-73
2022/07/15 00:12:49;;;;;;;3.20;1.83;;;;;;;15.23;62.61;102149.69;5068546;28;20373;-73
2022/07/15 00:15:14;;;;;;;4.43;2.03;;;;;;;15.20;63.63;102149.75;5069130;28;20025;-73
2022/07/15 00:17:41;;;;;;;5.63;1.98;;;;;;;15.15;63.57;102154.28;5065505;28;20495;-73
2022/07/15 00:20:09;;;;;;;4.55;2.00;;;;;;;15.14;63.62;102155.19;5061700;28;20490;-73
2022/07/15 00:22:34;;;;;;;4.55;2.00;;;;;;;15.12;63.50;102143.88;5069008;28;20028;-73
2022/07/15 00:25:00;;;;;;;5.70;1.83;;;;;;;15.10;63.53;102149.16;5061746;28;20040;-73
2022/07/15 00:27:25;;;;;;;9.07;2.30;;;;;;;15.08;63.79;102155.31;5062086;28;20025;-73
2022/07/15 00:29:50;;;;;;;6.28;2.10;;;;;;;15.05;63.91;102150.13;5059335;28;20568;-73
2022/07/15 00:32:16;;;;;;;5.47;1.80;;;;;;;15.01;63.79;102154.59;5062825;28;20040;-73
2022/07/15 00:34:42;;;;;;;4.35;1.90;;;;;;;14.98;64.09;102144.19;5061108;28;20433;-73
2022/07/15 00:37:07;;;;;;;6.60;2.20;;;;;;;14.93;64.21;102141.66;5065581;28;20555;-73
2022/07/15 00:39:33;;;;;;;5.55;2.03;;;;;;;14.89;64.11;102145.25;5065276;28;20483;-73
2022/07/15 00:41:59;;;;;;;4.63;1.80;;;;;;;14.86;64.63;102145.31;5065688;28;20083;-73
2022/07/15 00:44:25;;;;;;;4.60;2.00;;;;;;;14.85;64.29;102141.84;5061804;28;20021;-73
2022/07/15 00:46:51;;;;;;;5.10;1.92;;;;;;;14.82;64.35;102141.06;5062059;28;20028;-73
2022/07/15 00:49:16;;;;;;;4.55;1.80;;;;;;;14.81;64.51;102136.72;5056735;28;20029;-73
2022/07/15 00:51:46;;;;;;;6.30;2.10;;;;;;;14.79;64.38;102141.13;5068377;28;20111;-73
2022/07/15 00:54:13;;;;;;;6.05;1.90;;;;;;;14.77;64.35;102145.53;5062030;28;20059;-72
2022/07/15 00:56:46;;;;;;;4.10;1.70;;;;;;;14.75;64.53;102139.47;5061449;28;20028;-73
2022/07/15 00:59:12;;;;;;;4.25;1.63;;;;;;;14.72;64.70;102141.25;5064351;28;20623;-73
2022/07/15 01:01:38;;;;;;;6.10;1.85;;;;;;;14.69;64.75;102143.09;5058650;28;20391;-73
2022/07/15 01:04:04;;;;;;;4.93;2.15;;;;;;;14.67;64.77;102144.84;5058736;28;20028;-73
2022/07/15 01:06:30;;;;;;;6.53;1.80;;;;;;;14.64;64.94;102142.28;5060261;28;20036;-73
2022/07/15 01:08:56;;;;;;;5.38;1.92;;;;;;;14.61;65.13;102144.97;5058549;28;20017;-73
2022/07/15 01:11:21;;;;;;;5.07;1.73;;;;;;;14.58;65.12;102143.28;5057280;28;20036;-72
2022/07/15 01:13:46;;;;;;;9.38;2.10;;;;;;;14.57;64.92;102141.56;5063416;28;20505;-73
2022/07/15 01:16:12;;;;;;;6.55;1.98;;;;;;;14.54;65.42;102144.25;5058619;28;20032;-73
2022/07/15 01:18:38;;;;;;;8.93;2.10;;;;;;;14.55;65.13;102140.72;5067171;28;20023;-73
2022/07/15 01:21:03;;;;;;;5.18;1.90;;;;;;;14.51;65.17;102136.47;5065089;28;20047;-73
2022/07/15 01:23:28;;;;;;;4.25;1.90;;;;;;;14.48;65.24;102145.25;5061810;28;20021;-73
2022/07/15 01:25:53;;;;;;;5.20;2.08;;;;;;;14.46;65.39;102146.19;5056381;28;20040;-73
2022/07/15 01:28:19;;;;;;;3.95;1.95;;;;;;;14.44;65.17;102147.97;5058408;28;20029;-73
2022/07/15 01:30:45;;;;;;;6.15;1.80;;;;;;;14.39;65.48;102140.22;5057868;28;20376;-72
2022/07/15 01:33:10;;;;;;;5.90;1.70;;;;;;;14.39;65.44;102145.44;5052876;28;20035;-73
2022/07/15 01:35:36;;;;;;;7.78;2.25;;;;;;;14.38;65.78;102143.72;5058925;28;20032;-73
2022/07/15 01:38:01;;;;;;;4.28;1.98;;;;;;;14.38;65.68;102151.59;5066848;28;20021;-73
2022/07/15 01:40:27;;;;;;;5.10;2.00;;;;;;;14.35;65.88;102152.47;5063396;28;20071;-73
2022/07/15 01:42:52;;;;;;;4.70;1.95;;;;;;;14.32;66.06;102155.19;5060421;28;20068;-73
2022/07/15 01:45:17;;;;;;;5.20;1.90;;;;;;;14.31;66.01;102153.47;5060037;28;20028;-73
2022/07/15 01:47:44;;;;;;;4.03;1.90;;;;;;;14.28;66.32;102161.38;5056357;28;20028;-73
2022/07/15 01:50:10;;;;;;;4.18;1.92;;;;;;;14.26;66.47;102160.53;5057792;28;20057;-73
2022/07/15 01:52:36;;;;;;;5.40;2.03;;;;;;;14.23;66.44;102160.59;5057687;28;20032;-73
2022/07/15 01:55:02;;;;;;;5.20;1.80;;;;;;;14.22;66.37;102166.72;5060842;28;20029;-73
2022/07/15 01:57:27;;;;;;;7.30;2.35;;;;;;;14.18;66.58;102163.31;5064039;28;20031;-73
2022/07/15 01:59:52;;;;;;;6.95;2.30;;;;;;;14.16;66.79;102162.47;5067136;28;20119;-73
2022/07/15 02:02:18;;;;;;;5.97;2.10;;;;;;;14.11;66.86;102162.56;5057895;28;20756;-72
2022/07/15 02:04:43;;;;;;;5.47;2.20;;;;;;;14.11;66.97;102152.09;5065928;28;20048;-73
2022/07/15 02:07:08;;;;;;;5.38;1.80;;;;;;;14.10;65.78;102155.59;5040407;28;20375;-73
2022/07/15 02:09:34;;;;;;;4.80;1.80;;;;;;;14.10;66.54;102159.97;5041825;28;20135;-73
2022/07/15 02:12:00;;;;;;;7.05;1.95;;;;;;;14.05;66.88;102162.69;5045053;28;20029;-73
2022/07/15 02:14:25;;;;;;;3.60;1.92;;;;;;;14.05;67.10;102159.22;5065173;28;20475;-73
2022/07/15 02:16:50;;;;;;;4.53;2.10;;;;;;;14.04;67.16;102160.09;5066770;28;20024;-73
2022/07/15 02:19:16;;;;;;;5.50;1.98;;;;;;;14.02;67.24;102161.88;5070495;28;20089;-73
2022/07/15 02:21:41;;;;;;;3.67;1.80;;;;;;;13.99;67.42;102160.19;5063580;28;20043;-73
2022/07/15 02:24:07;;;;;;;6.78;2.33;;;;;;;13.98;67.42;102166.31;5056971;28;20137;-73
2022/07/15 02:26:32;;;;;;;6.55;2.20;;;;;;;13.96;67.54;102155.88;5055993;28;20025;-73
2022/07/15 02:28:57;;;;;;;6.70;2.13;;;;;;;13.96;67.40;102157.63;5061621;28;20490;-73
2022/07/15 02:31:23;;;;;;;5.65;2.00;;;;;;;13.94;67.71;102155.03;5058025;28;20483;-73
2022/07/15 02:33:48;;;;;;;5.65;2.35;;;;;;;13.93;67.09;102155.06;5056399;28;20021;-72
2022/07/15 02:36:14;;;;;;;4.68;1.80;;;;;;;13.91;67.65;102160.34;5056281;28;20017;-73
2022/07/15 02:38:40;;;;;;;4.78;1.88;;;;;;;13.88;67.85;102152.53;5060800;28;20410;-72
2022/07/15 02:41:06;;;;;;;4.97;1.98;;;;;;;13.87;67.91;102152.56;5060180;28;20530;-73
2022/07/15 02:43:32;;;;;;;7.50;1.80;;;;;;;13.85;66.99;102154.34;5058464;28;20060;-73
2022/07/15 02:45:57;;;;;;;5.70;1.90;;;;;;;13.81;67.86;102154.41;5053761;28;20090;-73
2022/07/15 02:48:22;;;;;;;6.32;2.10;;;;;;;13.79;67.78;102160.53;5053071;28;20078;-72
2022/07/15 02:50:48;;;;;;;4.22;1.80;;;;;;;13.79;68.35;102155.31;5058775;28;20071;-73
2022/07/15 02:53:14;;;;;;;6.25;1.85;;;;;;;13.78;67.05;102159.69;5056391;28;20498;-73
2022/07/15 02:55:39;;;;;;;4.03;1.90;;;;;;;13.76;67.30;102160.59;5054009;28;20495;-73
2022/07/15 02:58:05;;;;;;;4.97;1.83;;;;;;;13.74;67.30;102162.41;5056436;28;20175;-73
2022/07/15 03:00:30;;;;;;;5.82;2.13;;;;;;;13.71;67.69;102173.75;5036367;28;20115;-73
2022/07/15 03:02:56;;;;;;;3.83;1.70;;;;;;;13.69;67.67;102174.69;5059062;28;20081;-73
2022/07/15 03:05:21;;;;;;;6.10;2.15;;;;;;;13.67;68.17;102172.09;5055158;28;20037;-72
2022/07/15 03:07:46;;;;;;;6.07;1.98;;;;;;;13.63;66.93;102173.03;5055907;28;20111;-72
2022/07/15 03:10:13;;;;;;;6.60;1.98;;;;;;;13.60;67.37;102176.56;5055015;28;20442;-73
2022/07/15 03:12:38;;;;;;;5.65;1.83;;;;;;;13.58;67.89;102186.19;5054856;28;20017;-72
2022/07/15 03:15:04;;;;;;;3.72;1.80;;;;;;;13.57;68.58;102186.22;5057218;28;20467;-72
2022/07/15 03:17:30;;;;;;;6.30;1.83;;;;;;;13.55;68.72;102187.97;5052710;28;20203;-73
2022/07/15 03:19:55;;;;;;;3.90;2.47;;;;;;;13.54;68.33;102191.50;5057855;28;20162;-72
2022/07/15 03:22:25;;;;;;;5.38;1.90;;;;;;;13.55;69.20;102193.22;5053393;28;20039;-72
2022/07/15 03:24:50;;;;;;;7.30;2.00;;;;;;;13.55;69.24;102194.09;5055959;28;20371;-73
2022/07/15 03:27:16;;;;;;;5.43;1.80;;;;;;;13.54;69.62;102188.88;5052114;28;20033;-73
2022/07/15 03:29:43;;;;;;;5.10;2.20;;;;;;;13.55;69.40;102194.09;5056134;28;20040;-73
2022/07/15 03:32:10;;;;;;;7.43;2.08;;;;;;;13.56;69.43;102200.16;5057316;28;20025;-73
2022/07/15 03:34:35;;;;;;;5.93;2.10;;;;;;;13.57;69.24;102200.16;5055369;28;20116;-73
2022/07/15 03:37:01;;;;;;;5.28;1.90;;;;;;;13.59;69.27;102205.34;5058678;28;20428;-73
2022/07/15 03:39:26;;;;;;;7.53;2.08;;;;;;;13.60;68.87;102212.31;5061208;28;20028;-73
2022/07/15 03:41:52;;;;;;;6.68;2.00;;;;;;;13.59;69.22;102206.22;5055995;28;20056;-72
2022/07/15 03:44:17;;;;;;;4.90;1.88;;;;;;;13.59;69.27;102210.59;5054168;28;20032;-73
2022/07/15 03:46:45;;;;;;;7.57;2.03;;;;;;;13.60;69.48;102207.94;5054664;28;20028;-73
2022/07/15 03:49:11;;;;;;;6.05;2.10;;;;;;;13.61;69.25;102208.81;5058374;28;20124;-72
2022/07/15 03:51:37;;;;;;;4.38;1.85;;;;;;;13.63;69.07;102207.03;5057568;28;20060;-72
2022/07/15 03:54:03;;;;;;;5.03;2.20;;;;;;;13.63;69.42;102209.66;5057149;28;20443;-73
2022/07/15 03:56:29;;;;;;;4.10;1.92;;;;;;;13.60;69.36;102207.94;5053270;28;20036;-72
2022/07/15 03:58:55;;;;;;;6.43;2.05;;;;;;;13.61;69.32;102219.28;5055202;28;20036;-72
2022/07/15 04:01:21;;;;;;;7.22;2.40;;;;;;;13.60;69.47;102222.78;5038283;28;20093;-73
2022/07/15 04:03:48;;;;;;;5.82;2.10;;;;;;;13.61;69.50;102224.50;5041273;28;20483;-73
2022/07/15 04:06:15;;;;;;;5.38;2.10;;;;;;;13.61;69.40;102219.28;5057414;28;20025;-73
2022/07/15 04:08:40;;;;;;;6.35;1.90;;;;;;;13.64;69.37;102224.47;5056657;28;20388;-73
2022/07/15 04:11:05;;;;;;;5.88;2.03;;;;;;;13.66;69.57;102222.69;5059141;28;20025;-73
2022/07/15 04:13:31;;;;;;;4.22;1.90;;;;;;;13.67;69.63;102219.16;5061122;28;20146;-72
2022/07/15 04:15:56;;;;;;;5.20;2.65;;;;;;;13.68;69.70;102220.88;5041107;28;20025;-73
2022/07/15 04:18:21;;;;;;;7.00;2.40;;;;;;;13.71;69.72;102226.06;5058505;28;20487;-73
2022/07/15 04:20:46;;;;;;;7.97;2.40;;;;;;;13.73;69.26;102226.06;5059418;28;20020;-73
2022/07/15 04:23:12;;;;;;;10.48;2.05;;;;;;;13.77;69.24;102225.09;5059754;28;20506;-72
2022/07/15 04:25:37;;;;;;;12.15;2.55;;;;;;;13.77;69.33;102220.75;5059010;28;20029;-72
2022/07/15 04:28:02;;;;;;;7.43;2.13;;;;;;;13.80;69.25;102223.31;5058434;28;20052;-72
2022/07/15 04:30:28;;;;;;;5.82;2.05;;;;;;;13.82;68.91;102225.88;5062639;28;20024;-73
2022/07/15 04:32:53;;;;;;;6.63;2.30;;;;;;;13.84;68.86;102226.72;5061291;28;20046;-73
2022/07/15 04:35:18;;;;;;;5.75;2.30;;;;;;;13.84;68.71;102224.13;5059581;28;20037;-73
2022/07/15 04:37:43;;;;;;;5.68;2.03;;;;;;;13.85;69.04;102222.34;5066888;28;20494;-73
2022/07/15 04:40:12;;;;;;;4.45;2.28;;;;;;;13.87;69.64;102231.91;5063166;28;20139;-73
2022/07/15 04:42:37;;;;;;;5.93;2.40;;;;;;;13.89;69.47;102229.25;5057330;28;20079;-73
2022/07/15 04:45:03;;;;;;;6.50;2.30;;;;;;;13.92;69.45;102234.44;5062562;28;20052;-73
2022/07/15 04:47:28;;;;;;;7.57;2.20;;;;;;;13.95;69.46;102234.41;5063873;28;20024;-73
2022/07/15 04:52:43;;;;;;;8.07;2.47;;;;;;;14.01;69.56;102231.66;5058223;28;20051;-72
2022/07/15 04:55:09;;;;;;;5.68;2.15;;;;;;;14.04;69.62;102238.59;5058192;28;20028;-72
2022/07/15 04:57:34;;;;;;;4.72;2.28;;;;;;;14.06;69.63;102237.66;5059398;28;20024;-72
2022/07/15 04:59:59;;;;;;;6.65;2.20;;;;;;;14.10;69.62;102238.47;5058913;28;20060;-73
2022/07/15 05:02:25;;;;;;;8.48;2.15;;;;;;;14.09;69.64;102237.63;5056587;28;20460;-72
2022/07/15 05:04:51;;;;;;;5.75;2.40;;;;;;;14.09;69.53;102240.25;5056777;28;20032;-72
2022/07/15 05:07:16;;;;;;;5.85;2.22;;;;;;;14.10;69.47;102239.34;5064761;28;20028;-73
2022/07/15 05:09:41;;;;;;;4.47;2.13;;;;;;;14.10;69.48;102234.13;5049516;28;20070;-73
2022/07/15 05:12:07;;;;;;;8.15;2.47;;;;;;;14.12;69.65;102236.69;5067988;28;20059;-73
2022/07/15 05:14:32;;;;;;;8.57;2.53;;;;;;;14.15;69.54;102241.03;5060665;28;20032;-73
2022/07/15 05:16:57;;;;;;;5.18;2.22;;;;;;;14.17;69.17;102239.25;5058319;28;20024;-73
2022/07/15 05:19:22;;;;;;;7.05;2.72;;;;;;;14.17;68.92;102234.88;5059487;28;20528;-73
2022/07/15 05:21:48;;;;;;;5.20;2.30;;;;;;;14.21;69.29;102240.91;5055576;28;20032;-73
2022/07/15 05:24:14;;;;;;;6.68;2.55;;;;;;;14.26;69.34;102244.31;5040572;28;20021;-72
2022/07/15 05:26:39;;;;;;;5.40;2.50;;;;;;;14.27;69.52;102239.03;5062558;28;20372;-73
2022/07/15 05:29:04;;;;;;;5.15;2.25;;;;;;;14.31;69.91;102250.31;5058467;28;20032;-73
2022/07/15 05:31:29;;;;;;;6.50;2.45;;;;;;;14.37;69.59;102244.09;5059964;28;20180;-73
2022/07/15 05:33:55;;;;;;;6.03;2.22;;;;;;;14.41;69.36;102241.38;5058791;28;20478;-73
2022/07/15 05:36:20;;;;;;;4.22;2.20;;;;;;;14.46;69.32;102248.31;5054542;28;20052;-73
2022/07/15 05:38:46;;;;;;;5.10;2.15;;;;;;;14.50;69.29;102248.19;5055516;28;20087;-73
2022/07/15 05:41:11;;;;;;;6.15;2.30;;;;;;;14.54;69.11;102244.63;5052790;28;20055;-74
2022/07/15 05:43:37;;;;;;;5.28;2.08;;;;;;;14.58;68.53;102240.19;5053568;28;20037;-73
2022/07/15 05:46:03;;;;;;;8.15;2.13;;;;;;;14.63;68.89;102248.81;5058374;28;20319;-73
2022/07/15 05:48:29;;;;;;;5.75;2.08;;;;;;;14.64;68.71;102234.84;5056195;28;20119;-73
2022/07/15 05:50:55;;;;;;;6.20;2.00;;;;;;;14.65;68.24;102235.69;5055347;28;20428;-73
2022/07/15 05:53:21;;;;;;;6.20;2.00;;;;;;;14.67;68.66;102234.78;5055786;28;20133;-73
2022/07/15 05:55:46;;;;;;;7.72;1.55;;;;;;;14.70;67.96;102239.97;5055704;28;20478;-73
2022/07/15 05:58:11;;;;;;;5.82;1.67;;;;;;;14.72;66.89;102234.72;5054245;28;20108;-73
2022/07/15 06:00:37;;;;;;;6.90;1.77;;;;;;;14.72;67.48;102232.09;5053539;28;20039;-73
2022/07/15 06:03:06;;;;;;;5.65;1.83;;;;;;;14.77;67.64;102235.50;5058151;28;20040;-73
2022/07/15 06:05:32;;;;;;;6.78;1.73;;;;;;;14.82;67.47;102232.75;5062491;28;20035;-73
2022/07/15 06:07:57;;;;;;;5.43;1.90;;;;;;;14.87;67.64;102238.75;5062121;28;20032;-73
2022/07/15 06:10:23;;;;;;;3.95;1.58;;;;;;;14.92;66.95;102239.53;5063602;28;20060;-73
2022/07/15 06:12:48;;;;;;;5.05;1.50;;;;;;;14.96;66.91;102233.31;5060890;28;20115;-73
2022/07/15 06:15:14;;;;;;;4.43;1.50;;;;;;;15.00;67.05;102234.13;5062113;28;20429;-73
2022/07/15 06:17:39;;;;;;;6.00;1.63;;;;;;;15.07;67.77;102234.84;5057331;28;20052;-73
2022/07/15 06:20:06;;;;;;;5.57;1.45;;;;;;;15.12;66.21;102231.22;5059091;28;20361;-73
2022/07/15 06:22:31;;;;;;;4.53;1.42;;;;;;;15.15;64.48;102235.53;5060889;28;20029;-73
2022/07/15 06:24:56;;;;;;;4.95;1.30;;;;;;;15.20;64.47;102241.53;5062754;28;20407;-73
2022/07/15 06:27:22;;;;;;;7.30;1.40;;;;;;;15.18;64.46;102230.22;5059993;28;20081;-73
2022/07/15 06:29:49;;;;;;;3.80;1.23;;;;;;;15.25;65.18;102241.44;5062214;28;20036;-73
2022/07/15 06:32:14;;;;;;;4.53;1.05;;;;;;;15.29;64.55;102237.81;5058044;28;20035;-73
2022/07/15 06:34:40;;;;;;;4.97;1.08;;;;;;;15.32;64.13;102238.63;5062351;28;20025;-73
2022/07/15 06:37:05;;;;;;;5.88;0.90;;;;;;;15.40;64.60;102241.06;5063520;28;20037;-73
2022/07/15 06:39:31;;;;;;;4.30;0.80;;;;;;;15.43;62.54;102235.75;5060357;28;20062;-73
2022/07/15 06:41:57;;;;;;;2.47;0.70;;;;;;;15.47;63.86;102236.53;5060548;28;20499;-73
2022/07/15 06:44:22;;;;;;;4.78;1.10;;;;;;;15.52;62.80;102229.44;5063091;28;20035;-74
2022/07/15 06:46:48;;;;;;;3.05;0.90;;;;;;;15.53;62.69;102235.53;5060704;28;20502;-73
2022/07/15 06:49:13;;;;;;;2.92;0.88;;;;;;;15.52;62.45;102226.81;5061736;28;20033;-73
2022/07/15 06:51:38;;;;;;;3.40;0.80;;;;;;;15.55;61.81;102229.34;5043193;28;20034;-73
2022/07/15 06:54:04;;;;;;;4.20;0.98;;;;;;;15.59;61.36;102232.78;5060700;28;20033;-73
2022/07/15 06:56:29;;;;;;;4.93;0.95;;;;;;;15.62;61.71;102240.56;5062426;28;20475;-73
2022/07/15 06:58:54;;;;;;;6.22;1.15;;;;;;;15.68;61.77;102242.19;5062848;28;20047;-73
2022/07/15 07:01:20;;;;;;;5.20;0.90;;;;;;;15.74;62.88;102234.13;5063076;28;20021;-74
2022/07/15 07:03:45;;;;;;;3.75;1.05;;;;;;;15.77;62.02;102234.06;5059358;28;20037;-73
2022/07/15 07:06:11;;;;;;;6.07;1.00;;;;;;;15.80;62.01;102231.38;5061656;28;20562;-73
2022/07/15 07:08:36;;;;;;;6.47;1.20;;;;;;;15.84;62.50;102237.38;5059016;28;20024;-73
2022/07/15 07:11:02;;;;;;;2.88;0.90;;;;;;;15.86;62.33;102239.13;5064028;28;20106;-73
2022/07/15 07:13:27;;;;;;;2.97;1.02;;;;;;;15.96;61.21;102238.88;5055727;28;20162;-73
2022/07/15 07:15:53;;;;;;;2.80;0.80;;;;;;;16.05;61.26;102241.28;5055919;28;20024;-73
2022/07/15 07:18:18;;;;;;;3.28;1.00;;;;;;;16.10;61.62;102236.75;5060788;28;20039;-73
2022/07/15 07:20:43;;;;;;;5.28;1.00;;;;;;;16.11;59.78;102241.09;5061596;28;20383;-73
2022/07/15 07:23:11;;;;;;;4.13;0.88;;;;;;;16.12;59.62;102244.59;5057722;28;20029;-73
2022/07/15 07:25:37;;;;;;;5.50;0.90;;;;;;;16.13;59.81;102246.31;5055776;28;20029;-73
2022/07/15 07:28:03;;;;;;;2.70;1.00;;;;;;;16.16;60.22;102252.34;5057501;28;20526;-73
2022/07/15 07:30:30;;;;;;;2.75;1.20;;;;;;;16.20;59.65;102248.75;5056870;28;20028;-73
2022/07/15 07:32:55;;;;;;;3.03;0.80;;;;;;;16.25;59.21;102251.22;5041867;28;20394;-74
2022/07/15 07:35:21;;;;;;;4.63;1.10;;;;;;;16.31;59.97;102250.19;5057810;28;20024;-73
2022/07/15 07:37:46;;;;;;;4.28;1.02;;;;;;;16.38;59.78;102241.25;5056932;28;20032;-74
2022/07/15 07:40:12;;;;;;;4.47;1.15;;;;;;;16.43;59.27;102249.84;5056550;28;20042;-74
2022/07/15 07:42:38;;;;;;;6.00;1.17;;;;;;;16.47;59.75;102251.50;5042458;28;20024;-73
2022/07/15 07:45:04;;;;;;;3.10;0.90;;;;;;;16.50;57.68;102253.16;5062762;28;20028;-74
2022/07/15 07:47:29;;;;;;;6.32;1.10;;;;;;;16.49;57.74;102254.94;5057806;28;20387;-73
2022/07/15 07:49:55;;;;;;;5.63;1.13;;;;;;;16.55;58.09;102256.53;5058700;28;20028;-73
2022/07/15 07:52:20;;;;;;;2.63;0.90;;;;;;;16.58;58.39;102258.19;5061085;28;20047;-73
2022/07/15 07:54:46;;;;;;;3.60;1.00;;;;;;;16.54;58.67;102271.44;5057999;28;20025;-73
2022/07/15 07:57:11;;;;;;;3.40;0.90;;;;;;;16.46;57.65;102270.78;5057143;28;20032;-73
2022/07/15 07:59:36;;;;;;;4.57;1.00;;;;;;;16.42;57.83;102269.13;5056923;28;20466;-73
2022/07/15 08:02:03;;;;;;;3.67;0.82;;;;;;;16.37;57.37;102265.81;5061203;28;20456;-73
2022/07/15 08:04:29;;;;;;;4.85;0.93;;;;;;;16.35;57.96;102263.19;5058503;28;20422;-73
2022/07/15 08:06:55;;;;;;;4.63;0.98;;;;;;;16.38;57.91;102272.78;5042354;28;20040;-73
2022/07/15 08:09:20;;;;;;;3.00;0.90;;;;;;;16.47;57.63;102267.25;5038881;28;20032;-73
2022/07/15 08:11:45;;;;;;;3.53;0.90;;;;;;;16.59;58.61;102257.28;5060546;28;20120;-73
2022/07/15 08:14:10;;;;;;;2.53;0.70;;;;;;;16.71;58.10;102259.59;5055589;28;20740;-73
2022/07/15 08:16:36;;;;;;;2.72;0.68;;;;;;;16.73;56.73;102252.53;5058171;28;20041;-73
2022/07/15 08:19:02;;;;;;;2.63;0.60;;;;;;;16.76;56.33;102257.66;5057706;28;20032;-73
2022/07/15 08:21:27;;;;;;;3.30;0.80;;;;;;;16.80;56.98;102259.31;5060696;28;20032;-73
2022/07/15 08:23:54;;;;;;;2.97;0.70;;;;;;;16.83;54.96;102253.97;5056277;28;20033;-73
2022/07/15 08:26:23;;;;;;;3.40;0.80;;;;;;;16.86;56.25;102263.53;5058560;28;20067;-73
2022/07/15 08:28:49;;;;;;;4.43;0.75;;;;;;;16.90;55.12;102257.28;5059878;28;20063;-73
2022/07/15 08:31:15;;;;;;;3.20;0.70;;;;;;;16.97;56.43;102266.75;5061309;28;20032;-73
2022/07/15 08:33:40;;;;;;;5.60;1.00;;;;;;;17.05;55.08;102271.78;5061601;28;20028;-73
2022/07/15 08:36:05;;;;;;;3.58;0.70;;;;;;;17.10;55.14;102272.47;5061774;28;20140;-73
2022/07/15 08:38:31;;;;;;;4.55;0.90;;;;;;;17.19;55.48;102271.34;5059458;28;20029;-74
2022/07/15 08:40:57;;;;;;;4.88;0.80;;;;;;;17.25;53.67;102270.31;5057368;28;20095;-74
2022/07/15 08:43:22;;;;;;;6.65;1.20;;;;;;;17.29;54.22;102264.91;5059909;28;20429;-73
2022/07/15 08:45:48;;;;;;;3.42;0.98;;;;;;;17.34;53.86;102261.25;5057405;28;20037;-73
2022/07/15 08:48:14;;;;;;;5.05;0.90;;;;;;;17.37;53.92;102261.16;5060705;28;20028;-73
2022/07/15 08:50:44;;;;;;;3.70;0.80;;;;;;;17.41;53.88;102266.28;5061720;28;20037;-73
2022/07/15 08:53:09;;;;;;;7.50;1.10;;;;;;;17.45;54.26;102267.03;5059436;28;20022;-73
2022/07/15 08:55:35;;;;;;;3.90;0.70;;;;;;;17.47;52.80;102264.34;5057627;28;20025;-74
2022/07/15 08:58:00;;;;;;;3.42;1.00;;;;;;;17.47;52.82;102264.34;5057146;28;20086;-73
2022/07/15 09:00:29;;;;;;;3.78;0.70;;;;;;;17.47;53.71;102254.69;5057366;28;20131;-73
2022/07/15 09:02:56;;;;;;;4.82;0.95;;;;;;;17.52;53.21;102257.19;5057210;28;20033;-73
2022/07/15 09:05:24;;;;;;;5.15;0.75;;;;;;;17.56;51.88;102258.81;5057945;28;20036;-74
2022/07/15 09:08:10;;;;;;;2.47;0.50;;;;;;;17.65;55.71;102253.22;5059568;28;20024;-73
2022/07/15 09:11:06;;;;;;;3.03;0.80;;;;;;;17.75;53.89;102248.53;5056839;28;20028;-73
2022/07/15 09:13:39;;;;;;;2.53;0.65;;;;;;;17.77;52.98;102257.22;5037867;28;20059;-73
2022/07/15 09:16:08;;;;;;;1.67;0.60;;;;;;;17.82;53.55;102254.44;5058784;28;20029;-73
2022/07/15 09:18:39;;;;;;;3.00;0.80;;;;;;;17.84;52.05;102247.34;5056953;28;20021;-73
2022/07/15 09:21:21;;;;;;;3.38;0.95;;;;;;;17.75;52.45;102248.53;5057730;28;20039;-73
2022/07/15 09:23:48;;;;;;;2.05;0.70;;;;;;;17.62;52.63;102248.06;5054643;28;20056;-73
2022/07/15 09:26:29;;;;;;;2.80;0.80;;;;;;;17.64;53.90;102240.97;5059248;28;20217;-73
2022/07/15 09:28:57;;;;;;;3.50;0.77;;;;;;;17.70;51.29;102248.69;5056134;28;20055;-73
2022/07/15 09:34:23;;;;;;;1.85;0.50;;;;;;;17.72;48.25;102254.75;5063411;28;20043;-73
2022/07/15 09:36:53;;;;;;;5.63;0.80;;;;;;;17.62;48.23;102258.59;5066424;28;20855;-73
2022/07/15 09:39:19;;;;;;;2.28;0.43;;;;;;;17.56;48.76;102256.16;5060621;28;20025;-73
2022/07/15 09:41:46;;;;;;;2.05;0.70;;;;;;;17.60;49.11;102255.13;5052746;28;20101;-73
2022/07/15 09:44:12;;;;;;;3.08;0.70;;;;;;;17.75;49.95;102253.78;5062694;28;20028;-73
2022/07/15 09:46:59;;;;;;;1.80;0.47;;;;;;;17.97;51.23;102251.28;5058780;28;21333;-74
2022/07/15 09:49:24;;;;;;;2.92;0.60;;;;;;;18.13;50.30;102248.13;5054757;28;20048;-74
2022/07/15 09:51:53;;;;;;;1.48;0.75;;;;;;;18.22;48.16;102250.47;5036855;28;20041;-73
2022/07/15 09:54:19;;;;;;;2.10;0.60;;;;;;;18.23;49.09;102243.41;5055866;28;20024;-74
2022/07/15 09:56:46;;;;;;;1.73;0.60;;;;;;;18.27;51.31;102243.25;5057923;28;20146;-73
2022/07/15 09:59:11;;;;;;;1.20;0.60;;;;;;;18.32;48.85;102238.66;5057041;28;20032;-73
2022/07/15 10:01:37;;;;;;;2.63;0.80;;;;;;;18.30;48.22;102237.84;5056555;28;20040;-73
2022/07/15 10:04:04;;;;;;;3.00;0.77;;;;;;;18.24;49.72;102235.47;5057354;28;20033;-73
2022/07/15 10:06:32;;;;;;;2.72;0.60;;;;;;;18.18;49.43;102240.94;5059125;28;20037;-73
2022/07/15 10:08:57;;;;;;;2.47;0.60;;;;;;;18.16;48.78;102232.22;5056796;28;20136;-73
2022/07/15 10:11:22;;;;;;;1.90;0.50;;;;;;;18.16;48.64;102237.50;5056937;28;20111;-73
2022/07/15 10:14:18;;;;;;;2.08;0.60;;;;;;;18.25;50.91;102226.66;5059538;28;20020;-74
2022/07/15 10:17:11;;;;;;;2.70;0.60;;;;;;;18.47;50.92;102232.00;5060271;28;20028;-73
2022/07/15 10:20:05;;;;;;;3.05;0.50;;;;;;;18.66;50.39;102232.16;5057046;28;20031;-73
2022/07/15 10:22:49;;;;;;;1.48;0.50;;;;;;;18.79;48.24;102235.19;5063319;28;20109;-74
2022/07/15 10:25:26;;;;;;;2.13;0.60;;;;;;;18.87;49.00;102219.06;5062999;28;20031;-74
2022/07/15 10:28:05;;;;;;;4.60;0.60;;;;;;;18.94;48.26;102231.16;5042206;28;20158;-74
2022/07/15 10:30:31;;;;;;;2.63;0.60;;;;;;;18.98;46.50;102215.16;5061044;28;20120;-74
2022/07/15 10:33:07;;;;;;;2.70;0.50;;;;;;;19.02;48.33;102216.78;5060597;28;20486;-74
2022/07/15 10:35:34;;;;;;;2.17;0.50;;;;;;;19.11;47.18;102211.16;5058576;28;20063;-73
2022/07/15 10:38:25;;;;;;;3.15;0.55;;;;;;;19.26;49.17;102215.81;5063745;28;20032;-73
2022/07/15 10:41:06;;;;;;;2.17;0.60;;;;;;;19.32;48.29;102214.69;5060574;28;20058;-73
2022/07/15 10:43:47;;;;;;;2.10;0.47;;;;;;;19.33;47.34;102215.53;5064666;28;20483;-73
2022/07/15 10:46:18;;;;;;;2.53;0.73;;;;;;;19.29;45.61;102216.63;5059016;28;20033;-74
2022/07/15 10:48:44;;;;;;;;;;;;;;;19.30;47.97;102218.31;5040963;28;20036;-73
2022/07/15 10:51:10;;;;;;;2.75;0.52;;;;;;;19.23;46.93;102210.66;5055545;28;19926;-73
2022/07/15 10:53:53;;;;;;;2.63;0.60;;;;;;;19.26;47.74;102209.66;5066057;28;20024;-73
2022/07/15 10:56:34;;;;;;;2.85;0.65;;;;;;;19.29;47.74;102203.41;5070435;28;20028;-74
2022/07/15 10:59:13;;;;;;;2.83;0.68;;;;;;;19.40;47.08;102195.91;5059664;28;20017;-73
2022/07/15 11:01:40;;;;;;;2.15;0.60;;;;;;;19.40;44.72;102191.47;5065882;28;20531;-74
2022/07/15 11:04:11;;;;;;;2.92;0.70;;;;;;;19.39;45.24;102194.19;5069139;28;20020;-73
2022/07/15 11:07:01;;;;;;;2.05;0.60;;;;;;;19.37;46.49;102190.75;5065940;28;20082;-74
2022/07/15 11:09:48;;;;;;;4.70;0.70;;;;;;;19.40;46.30;102191.47;5050823;28;20024;-74
2022/07/15 11:12:18;;;;;;;2.50;0.60;;;;;;;19.44;44.85;102186.94;5043475;28;20039;-74
2022/07/15 11:14:45;;;;;;;1.95;0.60;;;;;;;19.49;45.30;102195.50;5059084;28;20078;-73
2022/07/15 11:17:12;;;;;;;2.00;0.60;;;;;;;19.54;45.42;102184.78;5060504;28;20032;-73
2022/07/15 11:19:38;;;;;;;2.80;0.68;;;;;;;19.65;46.13;102189.56;5063330;28;20052;-74
2022/07/15 11:22:05;;;;;;;2.45;0.85;;;;;;;19.74;44.37;102190.97;5063256;28;20035;-74
2022/07/15 11:24:31;;;;;;;1.92;0.50;;;;;;;19.76;43.93;102187.34;5070571;28;20038;-73
2022/07/15 11:27:00;;;;;;;2.10;0.45;;;;;;;19.75;44.40;102192.69;5070865;28;20028;-74
2022/07/15 11:29:25;;;;;;;1.15;0.40;;;;;;;19.73;45.28;102187.47;5070320;28;20021;-74